createdAt,value
2023-03-10T00:00:41.862Z,6.60
2023-03-10T00:02:49.558Z,8.50
2023-03-10T00:04:52.957Z,8.03
2023-03-10T00:06:55.976Z,7.57
2023-03-10T00:09:00.097Z,6.63
2023-03-10T00:11:02.902Z,6.33
2023-03-10T00:13:07.274Z,6.80
2023-03-10T00:15:12.857Z,8.00
2023-03-10T00:17:15.904Z,6.93
2023-03-10T00:19:18.932Z,6.80
2023-03-10T00:21:24.489Z,6.13
2023-03-10T00:23:27.436Z,6.37
2023-03-10T00:25:30.252Z,6.10
2023-03-10T00:27:33.487Z,5.17
2023-03-10T00:29:37.989Z,6.90
2023-03-10T00:31:40.892Z,5.57
2023-03-10T00:33:44.090Z,5.50
2023-03-10T00:35:46.947Z,6.20
2023-03-10T00:37:49.761Z,6.10
2023-03-10T00:39:53.361Z,6.33
2023-03-10T00:41:56.165Z,6.60
2023-03-10T00:43:59.292Z,5.93
2023-03-10T00:46:04.021Z,5.50
2023-03-10T00:48:07.458Z,5.17
2023-03-10T00:50:11.864Z,5.87
2023-03-10T00:52:14.648Z,5.33
2023-03-10T00:54:17.471Z,5.13
2023-03-10T00:56:22.035Z,4.87
2023-03-10T00:58:24.940Z,4.43
2023-03-10T01:00:27.845Z,4.07
2023-03-10T01:02:31.996Z,4.93
2023-03-10T01:04:34.806Z,4.40
2023-03-10T01:06:37.772Z,5.00
2023-03-10T01:08:40.913Z,4.50
2023-03-10T01:10:43.974Z,3.70
2023-03-10T01:12:46.968Z,4.70
2023-03-10T01:14:50.074Z,4.60
2023-03-10T01:16:52.985Z,5.03
2023-03-10T01:18:57.359Z,4.23
2023-03-10T01:21:00.153Z,4.13
2023-03-10T01:23:02.926Z,3.87
2023-03-10T01:25:06.839Z,4.17
2023-03-10T01:27:09.702Z,4.00
2023-03-10T01:29:12.456Z,3.83
2023-03-10T01:31:15.623Z,3.73
2023-03-10T01:33:19.500Z,3.97
2023-03-10T01:35:23.659Z,3.07
2023-03-10T01:37:26.528Z,3.70
2023-03-10T01:39:29.334Z,4.40
2023-03-10T01:41:32.139Z,3.97
2023-03-10T01:43:36.041Z,3.87
2023-03-10T01:46:30.363Z,4.67
2023-03-10T01:48:37.025Z,5.23
2023-03-10T01:50:42.878Z,5.07
2023-03-10T01:52:48.733Z,3.60
2023-03-10T01:54:56.095Z,3.40
2023-03-10T01:56:59.579Z,2.53
2023-03-10T01:59:02.508Z,3.13
2023-03-10T02:01:06.724Z,3.10
2023-03-10T02:03:15.316Z,3.20
2023-03-10T02:05:18.153Z,4.20
2023-03-10T02:07:25.853Z,4.80
2023-03-10T02:09:29.457Z,4.57
2023-03-10T02:11:32.999Z,4.00
2023-03-10T02:13:35.994Z,3.40
2023-03-10T02:15:40.203Z,3.27
2023-03-10T02:17:43.044Z,3.20
2023-03-10T02:20:04.360Z,2.70
2023-03-10T02:22:09.630Z,3.07
2023-03-10T02:24:22.768Z,3.20
2023-03-10T02:26:31.967Z,4.63
2023-03-10T02:28:36.137Z,4.10
2023-03-10T02:30:42.260Z,4.23
2023-03-10T02:32:48.740Z,4.20
2023-03-10T02:34:51.803Z,3.27
2023-03-10T02:36:54.685Z,3.87
2023-03-10T02:38:57.470Z,4.20
2023-03-10T02:41:00.383Z,4.20
2023-03-10T02:43:06.490Z,3.07
2023-03-10T02:45:11.704Z,1.93
2023-03-10T02:47:14.932Z,2.03
2023-03-10T02:49:19.887Z,2.47
2023-03-10T02:51:24.834Z,2.40
2023-03-10T02:53:29.465Z,2.07
2023-03-10T02:55:32.373Z,2.20
2023-03-10T02:57:35.258Z,2.13
2023-03-10T02:59:38.368Z,2.10
2023-03-10T03:01:42.529Z,2.40
2023-03-10T03:03:45.792Z,2.20
2023-03-10T03:05:49.791Z,2.30
2023-03-10T03:07:52.576Z,1.90
2023-03-10T03:09:55.762Z,2.63
2023-03-10T03:11:58.874Z,2.13
2023-03-10T03:14:01.856Z,2.20
2023-03-10T03:16:07.021Z,1.90
2023-03-10T03:18:11.808Z,1.93
2023-03-10T03:20:14.871Z,2.00
2023-03-10T03:22:17.713Z,2.03
2023-03-10T03:24:21.881Z,1.50
2023-03-10T03:26:26.954Z,2.17
2023-03-10T03:28:30.082Z,1.80
2023-03-10T03:30:33.317Z,1.90
2023-03-10T03:32:37.551Z,1.60
2023-03-10T03:34:41.763Z,1.70
2023-03-10T03:36:44.557Z,1.40
2023-03-10T03:38:47.674Z,1.73
2023-03-10T03:40:50.438Z,1.23
2023-03-10T03:42:54.821Z,2.10
2023-03-10T03:44:57.671Z,1.73
2023-03-10T03:47:00.509Z,1.40
2023-03-10T03:49:03.461Z,1.40
2023-03-10T03:51:08.066Z,1.40
2023-03-10T03:53:10.903Z,1.40
2023-03-10T03:55:16.020Z,1.37
2023-03-10T03:57:19.010Z,1.30
2023-03-10T03:59:21.782Z,1.20
2023-03-10T04:01:24.617Z,1.20
2023-03-10T04:03:27.596Z,1.20
2023-03-10T04:05:31.220Z,1.30
2023-03-10T04:07:35.712Z,1.13
2023-03-10T04:09:39.984Z,1.30
2023-03-10T04:11:42.911Z,1.37
2023-03-10T04:13:46.299Z,1.10
2023-03-10T04:15:49.182Z,0.93
2023-03-10T04:17:52.073Z,1.10
2023-03-10T04:20:06.587Z,1.30
2023-03-10T04:22:10.053Z,1.30
2023-03-10T04:24:14.324Z,1.00
2023-03-10T04:26:17.221Z,1.30
2023-03-10T04:28:20.204Z,1.00
2023-03-10T04:30:28.862Z,1.20
2023-03-10T04:32:32.365Z,1.20
2023-03-10T04:34:35.405Z,1.17
2023-03-10T04:36:38.285Z,1.10
2023-03-10T04:38:41.363Z,1.50
2023-03-10T04:40:45.738Z,1.57
2023-03-10T04:42:48.611Z,1.40
2023-03-10T04:44:52.112Z,1.50
2023-03-10T04:46:54.941Z,1.33
2023-03-10T04:48:57.821Z,1.00
2023-03-10T04:51:02.497Z,1.23
2023-03-10T04:53:05.493Z,1.20
2023-03-10T04:55:09.331Z,1.00
2023-03-10T04:57:13.540Z,0.90
2023-03-10T04:59:16.355Z,0.97
2023-03-10T05:01:19.163Z,1.10
2023-03-10T05:03:22.095Z,1.00
2023-03-10T05:05:25.111Z,1.00
2023-03-10T05:07:28.600Z,1.10
2023-03-10T05:09:31.783Z,1.40
2023-03-10T05:11:34.768Z,1.10
2023-03-10T05:13:39.335Z,0.90
2023-03-10T05:15:42.874Z,1.10
2023-03-10T05:17:48.183Z,1.17
2023-03-10T05:19:52.474Z,1.30
2023-03-10T05:21:55.531Z,1.20
2023-03-10T05:23:58.858Z,1.60
2023-03-10T05:26:04.692Z,1.13
2023-03-10T05:28:07.943Z,0.97
2023-03-10T05:30:16.020Z,0.97
2023-03-10T05:32:19.236Z,1.00
2023-03-10T05:34:23.724Z,1.00
2023-03-10T05:36:26.806Z,1.00
2023-03-10T05:38:29.652Z,1.13
2023-03-10T05:40:32.626Z,1.33
2023-03-10T05:42:35.524Z,1.10
2023-03-10T05:44:38.338Z,1.30
2023-03-10T05:46:42.628Z,1.13
2023-03-10T05:48:45.766Z,1.27
2023-03-10T05:50:58.134Z,1.00
2023-03-10T05:53:01.187Z,1.10
2023-03-10T05:55:04.175Z,1.10
2023-03-10T05:57:07.099Z,0.80
2023-03-10T05:59:10.080Z,1.40
2023-03-10T06:01:12.952Z,1.00
2023-03-10T06:03:17.484Z,1.00
2023-03-10T06:05:20.566Z,1.40
2023-03-10T06:07:23.337Z,1.50
2023-03-10T06:09:26.200Z,1.10
2023-03-10T06:11:29.271Z,1.20
2023-03-10T06:13:32.768Z,1.20
2023-03-10T06:15:35.765Z,1.83
2023-03-10T06:17:38.696Z,1.40
2023-03-10T06:19:42.918Z,1.83
2023-03-10T06:21:46.307Z,1.90
2023-03-10T06:23:49.148Z,2.20
2023-03-10T06:25:58.764Z,1.60
2023-03-10T06:28:01.597Z,1.67
2023-03-10T06:30:04.972Z,1.77
2023-03-10T06:32:08.381Z,1.90
2023-03-10T06:34:11.343Z,2.17
2023-03-10T06:36:16.678Z,1.60
2023-03-10T06:38:19.755Z,1.83
2023-03-10T06:40:22.902Z,2.00
2023-03-10T06:42:25.826Z,1.53
2023-03-10T06:44:28.773Z,1.60
2023-03-10T06:46:31.716Z,1.93
2023-03-10T06:48:35.369Z,1.57
2023-03-10T06:50:41.364Z,1.53
2023-03-10T06:52:45.808Z,1.83
2023-03-10T06:54:48.623Z,1.60
2023-03-10T06:56:51.819Z,1.87
2023-03-10T06:58:54.761Z,1.70
2023-03-10T07:00:58.060Z,1.60
2023-03-10T07:03:01.491Z,1.60
2023-03-10T07:05:04.926Z,1.90
2023-03-10T07:07:07.770Z,1.50
2023-03-10T07:09:12.085Z,1.67
2023-03-10T07:11:15.221Z,1.60
2023-03-10T07:13:18.198Z,1.27
2023-03-10T07:15:21.210Z,1.50
2023-03-10T07:17:24.268Z,1.60
2023-03-10T07:19:27.184Z,2.00
2023-03-10T07:21:30.002Z,1.40
2023-03-10T07:23:34.119Z,1.60
2023-03-10T07:25:39.444Z,1.53
2023-03-10T07:27:42.552Z,1.40
2023-03-10T07:29:45.658Z,1.70
2023-03-10T07:31:48.663Z,2.73
2023-03-10T07:33:51.622Z,1.83
2023-03-10T07:35:54.617Z,1.40
2023-03-10T07:37:57.534Z,1.57
2023-03-10T07:40:00.918Z,1.80
2023-03-10T07:42:05.538Z,1.97
2023-03-10T07:44:08.383Z,1.47
2023-03-10T07:46:13.767Z,1.77
2023-03-10T07:48:16.949Z,2.40
2023-03-10T07:50:20.688Z,1.67
2023-03-10T07:52:23.683Z,1.50
2023-03-10T07:54:26.592Z,1.57
2023-03-10T07:56:29.445Z,1.70
2023-03-10T07:58:34.363Z,1.47
2023-03-10T08:00:37.288Z,1.40
2023-03-10T08:02:40.900Z,1.50
2023-03-10T08:04:44.247Z,1.47
2023-03-10T08:06:47.541Z,1.60
2023-03-10T08:08:50.769Z,1.60
2023-03-10T08:11:01.811Z,1.40
2023-03-10T08:13:04.813Z,1.53
2023-03-10T08:15:11.106Z,1.77
2023-03-10T08:17:13.987Z,1.30
2023-03-10T08:19:17.063Z,1.80
2023-03-10T08:21:20.233Z,1.57
2023-03-10T08:23:23.688Z,1.57
2023-03-10T08:25:26.596Z,1.20
2023-03-10T08:27:30.232Z,1.40
2023-03-10T08:29:33.282Z,1.57
2023-03-10T08:31:37.698Z,1.80
2023-03-10T08:33:41.098Z,1.50
2023-03-10T08:35:44.092Z,1.50
2023-03-10T08:37:46.998Z,1.53
2023-03-10T08:39:51.928Z,1.30
2023-03-10T08:41:55.232Z,1.10
2023-03-10T08:43:59.901Z,1.17
2023-03-10T08:46:03.194Z,1.30
2023-03-10T08:48:07.500Z,1.27
2023-03-10T08:50:12.653Z,1.17
2023-03-10T08:52:15.648Z,1.60
2023-03-10T08:54:20.638Z,1.60
2023-03-10T08:56:24.732Z,1.50
2023-03-10T08:58:27.762Z,1.87
2023-03-10T09:00:30.629Z,1.50
2023-03-10T09:02:33.689Z,1.60
2023-03-10T09:04:38.218Z,1.57
2023-03-10T09:06:41.256Z,2.10
2023-03-10T09:08:44.292Z,1.50
2023-03-10T09:10:47.658Z,1.87
2023-03-10T09:12:54.303Z,1.70
2023-03-10T09:15:04.098Z,1.70
2023-03-10T09:17:07.404Z,1.90
2023-03-10T09:19:10.351Z,1.47
2023-03-10T09:21:16.791Z,1.60
2023-03-10T09:23:22.797Z,1.60
2023-03-10T09:25:25.684Z,1.70
2023-03-10T09:27:28.563Z,1.73
2023-03-10T09:29:42.671Z,1.93
2023-03-10T09:31:48.321Z,1.70
2023-03-10T09:33:51.926Z,1.80
2023-03-10T09:36:08.485Z,1.80
2023-03-10T09:38:14.556Z,1.50
2023-03-10T09:40:20.254Z,1.90
2023-03-10T09:42:38.387Z,1.53
2023-03-10T09:44:48.894Z,1.60
2023-03-10T09:47:07.071Z,1.50
2023-03-10T09:49:15.738Z,1.50
2023-03-10T09:51:23.250Z,1.43
2023-03-10T09:53:49.694Z,1.57
2023-03-10T09:55:53.152Z,1.30
2023-03-10T09:57:57.696Z,1.40
2023-03-10T10:00:05.149Z,1.53
2023-03-10T10:02:17.261Z,1.40
2023-03-10T10:04:24.414Z,1.43
2023-03-10T10:06:31.050Z,1.37
2023-03-10T10:08:49.055Z,1.10
2023-03-10T10:10:57.251Z,1.30
2023-03-10T10:13:04.352Z,1.60
2023-03-10T10:15:15.744Z,1.40
2023-03-10T10:17:29.862Z,1.40
2023-03-10T10:19:36.665Z,1.20
2023-03-10T10:21:47.298Z,1.27
2023-03-10T10:23:54.178Z,1.53
2023-03-10T10:26:00.912Z,1.50
2023-03-10T10:28:13.072Z,1.30
2023-03-10T10:30:34.811Z,1.30
2023-03-10T10:32:57.909Z,1.50
2023-03-10T10:35:15.111Z,1.60
2023-03-10T10:37:29.354Z,1.40
2023-03-10T10:39:37.777Z,1.57
2023-03-10T10:41:40.716Z,1.40
2023-03-10T10:43:45.793Z,1.50
2023-03-10T10:45:55.176Z,1.40
2023-03-10T10:47:58.489Z,2.17
2023-03-10T10:50:20.036Z,1.37
2023-03-10T10:52:25.757Z,1.60
2023-03-10T10:54:33.332Z,1.33
2023-03-10T10:56:37.564Z,1.70
2023-03-10T10:58:41.981Z,1.30
2023-03-10T11:00:55.410Z,1.47
2023-03-10T11:02:58.561Z,1.33
2023-03-10T11:05:14.345Z,1.40
2023-03-10T11:07:19.685Z,1.30
2023-03-10T11:09:24.433Z,1.50
2023-03-10T11:11:33.958Z,1.30
2023-03-10T11:13:52.473Z,1.30
2023-03-10T11:16:04.121Z,1.70
2023-03-10T11:18:13.591Z,1.30
2023-03-10T11:20:25.045Z,1.20
2023-03-10T11:22:38.028Z,1.70
2023-03-10T11:24:48.516Z,1.40
2023-03-10T11:26:58.796Z,1.40
2023-03-10T11:29:07.544Z,1.40
2023-03-10T11:31:25.238Z,1.60
2023-03-10T11:33:34.012Z,2.40
2023-03-10T11:35:43.904Z,1.43
2023-03-10T11:37:51.893Z,1.47
2023-03-10T11:40:07.732Z,1.53
2023-03-10T11:42:17.224Z,1.70
2023-03-10T11:44:28.939Z,1.50
2023-03-10T11:46:36.502Z,1.73
2023-03-10T11:48:50.989Z,1.87
2023-03-10T11:50:55.986Z,1.20
2023-03-10T11:53:03.941Z,1.30
2023-03-10T11:55:15.373Z,1.30
2023-03-10T11:57:20.601Z,1.27
2023-03-10T11:59:26.931Z,1.60
2023-03-10T12:01:34.074Z,0.90
2023-03-10T12:03:45.337Z,1.10
2023-03-10T12:05:53.279Z,0.90
2023-03-10T12:08:01.524Z,1.17
2023-03-10T12:10:14.334Z,1.37
2023-03-10T12:12:21.475Z,0.70
2023-03-10T12:14:26.221Z,1.10
2023-03-10T12:16:32.034Z,1.30
2023-03-10T12:18:35.157Z,1.27
2023-03-10T12:20:38.424Z,2.00
2023-03-10T12:22:43.353Z,1.40
2023-03-10T12:24:48.152Z,1.30
2023-03-10T12:27:03.798Z,1.00
2023-03-10T12:29:36.476Z,1.00
2023-03-10T12:31:48.194Z,0.90
2023-03-10T12:33:53.357Z,0.77
2023-03-10T12:35:58.875Z,0.50
2023-03-10T12:38:31.758Z,0.60
2023-03-10T12:40:51.039Z,0.60
2023-03-10T12:42:53.970Z,0.43
2023-03-10T12:45:10.406Z,0.50
2023-03-10T12:47:43.952Z,0.90
2023-03-10T12:49:51.923Z,1.63
2023-03-10T12:52:00.998Z,1.00
2023-03-10T12:54:16.305Z,0.53
2023-03-10T12:56:33.874Z,0.70
2023-03-10T12:58:38.379Z,1.30
2023-03-10T13:00:56.780Z,0.90
2023-03-10T13:03:05.171Z,0.67
2023-03-10T13:05:19.030Z,0.60
2023-03-10T13:07:21.927Z,1.10
2023-03-10T13:09:28.289Z,1.00
2023-03-10T13:11:36.830Z,1.00
2023-03-10T13:13:40.992Z,1.00
2023-03-10T13:15:43.960Z,1.00
2023-03-10T13:17:48.808Z,1.23
2023-03-10T13:20:01.025Z,0.90
2023-03-10T13:22:05.780Z,1.00
2023-03-10T13:24:24.295Z,1.00
2023-03-10T13:26:28.050Z,1.30
2023-03-10T13:28:34.612Z,1.30
2023-03-10T13:30:37.440Z,1.20
2023-03-10T13:32:40.470Z,1.23
2023-03-10T13:34:44.685Z,1.20
2023-03-10T13:36:48.445Z,1.10
2023-03-10T13:38:53.150Z,1.20
2023-03-10T13:41:02.202Z,0.90
2023-03-10T13:43:08.052Z,1.17
2023-03-10T13:45:21.837Z,1.90
2023-03-10T13:47:27.316Z,1.50
2023-03-10T13:49:32.965Z,1.47
2023-03-10T13:51:38.900Z,1.03
2023-03-10T13:53:41.855Z,1.00
2023-03-10T13:55:44.807Z,1.27
2023-03-10T13:57:51.008Z,0.80
2023-03-10T13:59:55.837Z,0.90
2023-03-10T14:02:01.148Z,1.30
2023-03-10T14:04:08.659Z,1.30
2023-03-10T14:06:14.463Z,1.30
2023-03-10T14:08:25.391Z,1.40
2023-03-10T14:10:28.519Z,1.30
2023-03-10T14:12:40.683Z,1.23
2023-03-10T14:14:44.553Z,1.00
2023-03-10T14:16:59.255Z,1.07
2023-03-10T14:19:02.280Z,1.43
2023-03-10T14:21:32.312Z,1.40
2023-03-10T14:23:38.080Z,1.20
2023-03-10T14:25:42.508Z,1.07
2023-03-10T14:27:47.488Z,0.90
2023-03-10T14:29:52.190Z,1.27
2023-03-10T14:31:55.017Z,1.13
2023-03-10T14:33:57.993Z,1.17
2023-03-10T14:36:00.985Z,1.50
2023-03-10T14:38:04.116Z,1.20
2023-03-10T14:40:10.857Z,1.30
2023-03-10T14:42:21.391Z,1.30
2023-03-10T14:44:24.314Z,1.10
2023-03-10T14:46:27.943Z,1.03
2023-03-10T14:48:36.554Z,1.30
2023-03-10T14:50:39.634Z,1.43
2023-03-10T14:52:42.650Z,1.13
2023-03-10T14:54:45.739Z,1.13
2023-03-10T14:56:52.699Z,0.97
2023-03-10T14:58:56.770Z,2.20
2023-03-10T15:01:00.548Z,1.90
2023-03-10T15:03:06.245Z,4.80
2023-03-10T15:05:15.971Z,2.27
2023-03-10T15:07:18.945Z,1.80
2023-03-10T15:09:22.755Z,1.40
2023-03-10T15:11:36.956Z,1.20
2023-03-10T15:13:41.681Z,1.77
2023-03-10T15:15:47.081Z,1.30
2023-03-10T15:17:50.044Z,1.17
2023-03-10T15:19:52.898Z,0.97
2023-03-10T15:21:55.897Z,1.20
2023-03-10T15:23:58.741Z,1.10
2023-03-10T15:26:03.826Z,2.00
2023-03-10T15:28:07.097Z,1.20
2023-03-10T15:30:18.023Z,1.10
2023-03-10T15:32:20.773Z,1.10
2023-03-10T15:34:23.569Z,1.40
2023-03-10T15:36:26.432Z,1.20
2023-03-10T15:38:29.390Z,1.10
2023-03-10T15:40:36.171Z,1.30
2023-03-10T15:42:39.083Z,1.20
2023-03-10T15:44:42.635Z,1.17
2023-03-10T15:46:47.992Z,1.20
2023-03-10T15:48:50.870Z,1.10
2023-03-10T15:50:53.855Z,1.33
2023-03-10T15:52:58.837Z,1.20
2023-03-10T15:55:02.030Z,1.20
2023-03-10T15:57:05.149Z,1.20
2023-03-10T15:59:08.337Z,1.07
2023-03-10T16:01:13.555Z,1.03
2023-03-10T16:03:18.448Z,1.00
2023-03-10T16:05:21.872Z,1.10
2023-03-10T16:07:24.655Z,1.00
2023-03-10T16:09:27.516Z,1.10
2023-03-10T16:11:30.294Z,6.13
2023-03-10T16:13:33.745Z,1.87
2023-03-10T16:15:39.270Z,1.37
2023-03-10T16:17:42.230Z,1.40
2023-03-10T16:19:46.524Z,1.10
2023-03-10T16:21:49.369Z,1.10
2023-03-10T16:23:52.190Z,1.10
2023-03-10T16:26:09.341Z,0.90
2023-03-10T16:28:12.125Z,1.20
2023-03-10T16:30:17.025Z,1.00
2023-03-10T16:32:20.008Z,1.10
2023-03-10T16:34:22.967Z,0.80
2023-03-10T16:36:29.274Z,0.90
2023-03-10T16:38:32.108Z,1.53
2023-03-10T16:40:34.914Z,0.70
2023-03-10T16:42:37.871Z,0.90
2023-03-10T16:44:40.756Z,0.90
2023-03-10T16:46:43.754Z,0.90
2023-03-10T16:48:48.411Z,0.80
2023-03-10T16:50:51.972Z,0.90
2023-03-10T16:52:56.731Z,0.60
2023-03-10T16:55:01.460Z,0.90
2023-03-10T16:57:06.846Z,1.20
2023-03-10T16:59:12.824Z,1.80
2023-03-10T17:01:15.719Z,1.33
2023-03-10T17:03:18.695Z,6.13
2023-03-10T17:05:22.972Z,5.37
2023-03-10T17:07:25.798Z,3.50
2023-03-10T17:09:30.103Z,4.30
2023-03-10T17:11:34.443Z,2.07
2023-03-10T17:13:37.932Z,1.87
2023-03-10T17:15:40.975Z,1.33
2023-03-10T17:17:43.862Z,5.57
2023-03-10T17:19:46.766Z,1.77
2023-03-10T17:21:52.261Z,1.43
2023-03-10T17:23:55.238Z,6.60
2023-03-10T17:25:59.404Z,6.47
2023-03-10T17:28:02.255Z,6.97
2023-03-10T17:30:05.992Z,3.27
2023-03-10T17:32:08.833Z,4.30
2023-03-10T17:34:14.299Z,1.20
2023-03-10T17:36:18.374Z,1.80
2023-03-10T17:38:21.277Z,2.73
2023-03-10T17:40:24.080Z,4.80
2023-03-10T17:42:30.602Z,1.70
2023-03-10T17:44:33.462Z,1.90
2023-03-10T17:46:36.383Z,1.30
2023-03-10T17:48:39.588Z,1.00
2023-03-10T17:50:47.858Z,1.07
2023-03-10T17:52:52.293Z,0.83
2023-03-10T17:54:55.307Z,1.10
2023-03-10T17:56:58.081Z,0.90
2023-03-10T17:59:02.197Z,0.83
2023-03-10T18:01:09.623Z,0.70
2023-03-10T18:03:12.482Z,0.80
2023-03-10T18:05:15.484Z,0.70
2023-03-10T18:07:18.523Z,0.90
2023-03-10T18:09:21.411Z,1.07
2023-03-10T18:11:24.546Z,0.80
2023-03-10T18:13:29.200Z,0.70
2023-03-10T18:15:34.032Z,0.70
2023-03-10T18:17:36.874Z,0.77
2023-03-10T18:19:39.754Z,0.60
2023-03-10T18:21:42.827Z,0.70
2023-03-10T18:23:46.527Z,0.70
2023-03-10T18:25:49.761Z,0.73
2023-03-10T18:27:52.670Z,0.90
2023-03-10T18:29:55.666Z,0.60
2023-03-10T18:31:59.792Z,0.60
2023-03-10T18:34:03.321Z,0.67
2023-03-10T18:36:08.537Z,0.57
2023-03-10T18:38:13.145Z,8.10
2023-03-10T18:40:17.291Z,15.90
2023-03-10T18:42:21.756Z,5.90
2023-03-10T18:44:24.537Z,4.47
2023-03-10T18:46:27.655Z,3.70
2023-03-10T18:48:32.164Z,3.20
2023-03-10T18:50:35.063Z,4.97
2023-03-10T18:52:37.847Z,1.27
2023-03-10T18:54:40.825Z,0.87
2023-03-10T18:56:43.874Z,0.80
2023-03-10T18:58:46.821Z,0.67
2023-03-10T19:00:49.779Z,1.00
2023-03-10T19:02:54.208Z,0.70
2023-03-10T19:05:00.747Z,0.70
2023-03-10T19:07:06.413Z,0.90
2023-03-10T19:09:09.401Z,0.50
2023-03-10T19:11:12.707Z,0.90
2023-03-10T19:13:15.602Z,0.70
2023-03-10T19:15:18.686Z,0.80
2023-03-10T19:17:21.561Z,0.70
2023-03-10T19:19:24.437Z,0.73
2023-03-10T19:21:29.852Z,0.70
2023-03-10T19:23:33.991Z,0.80
2023-03-10T19:25:37.068Z,1.07
2023-03-10T19:27:40.603Z,0.40
2023-03-10T19:29:43.420Z,0.87
2023-03-10T19:31:46.308Z,0.70
2023-03-10T19:33:49.268Z,1.00
2023-03-10T19:36:00.846Z,3.37
2023-03-10T19:38:05.510Z,1.37
2023-03-10T19:40:09.744Z,1.50
2023-03-10T19:42:12.573Z,0.90
2023-03-10T19:44:15.362Z,0.80
2023-03-10T19:46:20.162Z,0.67
2023-03-10T19:48:23.005Z,1.67
2023-03-10T19:50:28.683Z,1.17
2023-03-10T19:52:31.474Z,0.60
2023-03-10T19:54:35.576Z,0.60
2023-03-10T19:56:38.529Z,0.50
2023-03-10T19:58:41.304Z,0.50
2023-03-10T20:00:46.323Z,0.60
2023-03-10T20:02:49.137Z,0.70
2023-03-10T20:04:51.904Z,0.70
2023-03-10T20:06:54.738Z,0.63
2023-03-10T20:08:58.094Z,0.90
2023-03-10T20:11:03.404Z,0.60
2023-03-10T20:25:25.179Z,0.40
2023-03-10T20:27:28.527Z,5.40
2023-03-10T20:29:32.527Z,7.30
2023-03-10T20:31:35.335Z,4.97
2023-03-10T20:33:38.167Z,0.80
2023-03-10T20:35:41.016Z,2.07
2023-03-10T20:37:43.913Z,1.43
2023-03-10T20:39:46.658Z,0.90
2023-03-10T20:41:51.427Z,0.70
2023-03-10T20:43:55.271Z,3.60
2023-03-10T20:45:58.042Z,1.40
2023-03-10T20:48:00.949Z,1.87
2023-03-10T20:50:04.378Z,2.47
2023-03-10T20:52:07.203Z,1.00
2023-03-10T20:54:10.026Z,1.20
2023-03-10T20:56:14.257Z,1.10
2023-03-10T20:58:18.396Z,1.00
2023-03-10T21:00:24.556Z,3.93
2023-03-10T21:02:27.336Z,1.20
2023-03-10T21:04:30.199Z,1.20
2023-03-10T21:06:33.132Z,1.73
2023-03-10T21:08:35.938Z,1.27
2023-03-10T21:10:39.721Z,5.30
2023-03-10T21:12:43.705Z,1.33
2023-03-10T21:14:47.922Z,1.10
2023-03-10T21:16:50.780Z,1.30
2023-03-10T21:18:53.623Z,1.40
2023-03-10T21:20:56.355Z,1.40
2023-03-10T21:22:59.428Z,2.13
2023-03-10T21:25:02.326Z,1.93
2023-03-10T21:27:05.625Z,1.40
2023-03-10T21:29:08.448Z,2.27
2023-03-10T21:31:13.196Z,2.60
2023-03-10T21:33:15.995Z,2.20
2023-03-10T21:35:19.032Z,2.10
2023-03-10T21:37:21.968Z,2.13
2023-03-10T21:39:24.805Z,2.60
2023-03-10T21:41:29.960Z,2.77
2023-03-10T21:43:32.766Z,2.83
2023-03-10T21:45:37.379Z,3.17
2023-03-10T21:47:41.530Z,2.83
2023-03-10T21:49:44.324Z,4.07
2023-03-10T21:51:47.805Z,3.17
2023-03-10T21:53:51.275Z,3.73
2023-03-10T21:55:54.376Z,3.70
2023-03-10T21:57:57.171Z,3.43
2023-03-10T22:00:00.129Z,3.23
2023-03-10T22:02:03.506Z,3.40
2023-03-10T22:04:07.690Z,3.30
2023-03-10T22:06:11.428Z,3.83
2023-03-10T22:08:14.150Z,3.50
2023-03-10T22:10:18.152Z,4.00
2023-03-10T22:12:20.991Z,4.63
2023-03-10T22:14:24.592Z,3.87
2023-03-10T22:16:27.449Z,4.40
2023-03-10T22:18:30.353Z,4.30
2023-03-10T22:20:34.572Z,4.40
2023-03-10T22:22:37.367Z,4.70
2023-03-10T22:24:41.136Z,3.57
2023-03-10T22:26:44.085Z,5.00
2023-03-10T22:28:46.837Z,4.80
2023-03-10T22:30:49.782Z,4.50
2023-03-10T22:32:53.068Z,5.87
2023-03-10T22:34:55.960Z,5.23
2023-03-10T22:37:00.049Z,5.63
2023-03-10T22:39:02.869Z,5.60
2023-03-10T22:41:10.340Z,6.83
2023-03-10T22:43:13.100Z,5.80
2023-03-10T22:45:22.770Z,7.33
2023-03-10T22:47:25.550Z,8.47
2023-03-10T22:49:28.278Z,7.97
2023-03-10T22:51:31.272Z,8.93
2023-03-10T22:53:37.848Z,7.37
2023-03-10T22:55:42.624Z,9.63
2023-03-10T22:57:45.615Z,8.97
2023-03-10T22:59:48.389Z,8.77
2023-03-10T23:01:51.411Z,9.67
2023-03-10T23:03:54.194Z,9.07
2023-03-10T23:05:58.475Z,8.90
2023-03-10T23:08:01.307Z,10.90
2023-03-10T23:10:07.322Z,10.33
2023-03-10T23:12:10.993Z,8.23
2023-03-10T23:14:13.746Z,10.67
2023-03-10T23:16:18.064Z,10.00
2023-03-10T23:18:21.341Z,7.20
2023-03-10T23:20:27.304Z,6.13
2023-03-10T23:22:30.219Z,7.30
2023-03-10T23:24:33.001Z,6.33
2023-03-10T23:26:37.501Z,6.70
2023-03-10T23:28:40.426Z,6.63
2023-03-10T23:30:45.464Z,6.43
2023-03-10T23:32:51.173Z,6.23
2023-03-10T23:34:54.036Z,6.03
2023-03-10T23:36:58.258Z,6.23
2023-03-10T23:39:01.023Z,6.43
2023-03-10T23:41:03.784Z,6.87
2023-03-10T23:43:08.433Z,5.43
2023-03-10T23:45:14.483Z,6.10
2023-03-10T23:47:17.578Z,6.00
2023-03-10T23:49:22.203Z,6.50
2023-03-10T23:51:25.384Z,6.13
2023-03-10T23:53:29.399Z,7.10
2023-03-10T23:55:35.002Z,6.87
2023-03-10T23:57:37.820Z,6.87
2023-03-10T23:59:44.047Z,7.20
